createdAt,value
2023-05-03T00:00:01.354Z,9.7
2023-05-03T00:01:00.761Z,9.7
2023-05-03T00:02:00.391Z,9.7
2023-05-03T00:03:00.139Z,9.7
2023-05-03T00:03:59.751Z,9.7
2023-05-03T00:05:01.763Z,9.7
2023-05-03T00:06:03.171Z,9.6
2023-05-03T00:07:01.117Z,9.6
2023-05-03T00:08:01.033Z,9.6
2023-05-03T00:09:01.142Z,9.6
2023-05-03T00:10:01.658Z,9.7
2023-05-03T00:11:07.596Z,9.7
2023-05-03T00:12:01.051Z,9.6
2023-05-03T00:13:01.066Z,9.7
2023-05-03T00:14:00.643Z,9.6
2023-05-03T00:15:00.257Z,9.6
2023-05-03T00:16:08.997Z,9.6
2023-05-03T00:17:01.159Z,9.6
2023-05-03T00:18:01.105Z,9.6
2023-05-03T00:19:01.097Z,9.6
2023-05-03T00:20:01.605Z,9.6
2023-05-03T00:21:12.872Z,9.6
2023-05-03T00:22:02.011Z,9.6
2023-05-03T00:23:01.129Z,9.6
2023-05-03T00:24:01.133Z,9.6
2023-05-03T00:25:01.037Z,9.6
2023-05-03T00:26:15.436Z,9.6
2023-05-03T00:27:01.648Z,9.6
2023-05-03T00:28:02.010Z,9.6
2023-05-03T00:29:01.472Z,9.6
2023-05-03T00:30:01.305Z,9.6
2023-05-03T00:31:01.093Z,9.6
2023-05-03T00:32:01.073Z,9.6
2023-05-03T00:33:01.133Z,9.6
2023-05-03T00:34:01.079Z,9.6
2023-05-03T00:35:01.035Z,9.6
2023-05-03T00:36:01.130Z,9.7
2023-05-03T00:37:01.483Z,9.6
2023-05-03T00:38:02.141Z,9.7
2023-05-03T00:39:02.187Z,9.7
2023-05-03T00:40:01.498Z,9.7
2023-05-03T00:41:01.315Z,9.7
2023-05-03T00:42:01.044Z,9.6
2023-05-03T00:43:01.057Z,9.6
2023-05-03T00:44:01.026Z,9.6
2023-05-03T00:45:01.153Z,9.6
2023-05-03T00:46:12.297Z,9.6
2023-05-03T00:47:01.068Z,9.6
2023-05-03T00:48:01.121Z,9.6
2023-05-03T00:49:01.085Z,9.6
2023-05-03T00:50:01.912Z,9.6
2023-05-03T00:51:01.031Z,9.6
2023-05-03T00:52:01.402Z,9.5
2023-05-03T00:53:01.209Z,9.5
2023-05-03T00:54:01.166Z,9.5
2023-05-03T00:55:01.320Z,9.5
2023-05-03T00:56:02.442Z,9.5
2023-05-03T00:57:01.430Z,9.5
2023-05-03T00:58:01.959Z,9.5
2023-05-03T00:59:01.039Z,9.5
2023-05-03T01:00:01.585Z,9.5
2023-05-03T01:01:01.048Z,9.5
2023-05-03T01:02:01.110Z,9.5
2023-05-03T01:03:01.151Z,9.5
2023-05-03T01:04:02.054Z,9.5
2023-05-03T01:05:01.089Z,9.5
2023-05-03T01:06:01.196Z,9.5
2023-05-03T01:07:01.485Z,9.5
2023-05-03T01:08:02.163Z,9.5
2023-05-03T01:09:01.111Z,9.5
2023-05-03T01:10:01.323Z,9.5
2023-05-03T01:11:01.117Z,9.5
2023-05-03T01:12:01.046Z,9.5
2023-05-03T01:13:01.039Z,9.5
2023-05-03T01:14:01.050Z,9.5
2023-05-03T01:15:01.471Z,9.5
2023-05-03T01:16:01.237Z,9.5
2023-05-03T01:17:01.100Z,9.5
2023-05-03T01:18:00.901Z,9.4
2023-05-03T01:19:01.603Z,9.4
2023-05-03T01:20:01.590Z,9.4
2023-05-03T01:21:02.292Z,9.4
2023-05-03T01:22:01.688Z,9.3
2023-05-03T01:23:02.715Z,9.4
2023-05-03T01:24:01.315Z,9.4
2023-05-03T01:25:02.039Z,9.4
2023-05-03T01:26:01.243Z,9.4
2023-05-03T01:27:01.141Z,9.4
2023-05-03T01:28:01.350Z,9.4
2023-05-03T01:29:01.030Z,9.4
2023-05-03T01:30:01.412Z,9.4
2023-05-03T01:31:01.057Z,9.4
2023-05-03T01:32:01.524Z,9.4
2023-05-03T01:33:01.490Z,9.4
2023-05-03T01:34:01.098Z,9.4
2023-05-03T01:35:01.072Z,9.4
2023-05-03T01:36:01.087Z,9.4
2023-05-03T01:37:01.085Z,9.3
2023-05-03T01:38:01.079Z,9.3
2023-05-03T01:39:01.023Z,9.3
2023-05-03T01:40:01.739Z,9.3
2023-05-03T01:41:01.112Z,9.3
2023-05-03T01:42:01.358Z,9.3
2023-05-03T01:43:01.954Z,9.3
2023-05-03T01:44:02.715Z,9.3
2023-05-03T01:45:01.043Z,9.3
2023-05-03T01:46:01.077Z,9.3
2023-05-03T01:47:03.766Z,9.3
2023-05-03T01:48:00.753Z,9.3
2023-05-03T01:49:01.480Z,9.3
2023-05-03T01:50:01.905Z,9.3
2023-05-03T01:51:01.331Z,9.3
2023-05-03T01:52:06.859Z,9.3
2023-05-03T01:53:01.985Z,9.2
2023-05-03T01:54:01.078Z,9.1
2023-05-03T01:55:01.131Z,9.1
2023-05-03T01:56:00.780Z,9.1
2023-05-03T01:57:09.182Z,9.1
2023-05-03T01:58:01.247Z,9.2
2023-05-03T01:59:02.043Z,9.1
2023-05-03T02:00:01.798Z,9.1
2023-05-03T02:01:01.395Z,9.1
2023-05-03T02:02:11.917Z,9
2023-05-03T02:03:01.147Z,8.9
2023-05-03T02:04:01.676Z,8.9
2023-05-03T02:05:01.365Z,8.9
2023-05-03T02:06:01.137Z,8.9
2023-05-03T02:07:14.552Z,9
2023-05-03T02:08:01.071Z,9
2023-05-03T02:09:01.066Z,8.9
2023-05-03T02:10:01.467Z,8.8
2023-05-03T02:11:01.269Z,8.8
2023-05-03T02:12:16.797Z,8.7
2023-05-03T02:13:01.051Z,8.7
2023-05-03T02:14:01.140Z,8.7
2023-05-03T02:15:01.124Z,8.7
2023-05-03T02:16:01.475Z,8.7
2023-05-03T02:17:02.100Z,8.7
2023-05-03T02:18:01.772Z,8.7
2023-05-03T02:19:01.349Z,8.8
2023-05-03T02:20:02.274Z,8.8
2023-05-03T02:21:02.234Z,8.8
2023-05-03T02:22:01.857Z,8.7
2023-05-03T02:23:01.077Z,8.7
2023-05-03T02:24:01.037Z,8.7
2023-05-03T02:25:01.092Z,8.7
2023-05-03T02:26:01.729Z,8.7
2023-05-03T02:27:02.373Z,8.7
2023-05-03T02:28:01.510Z,8.7
2023-05-03T02:29:02.028Z,8.7
2023-05-03T02:30:01.884Z,8.8
2023-05-03T02:31:01.449Z,8.8
2023-05-03T02:32:01.506Z,8.8
2023-05-03T02:33:01.077Z,8.7
2023-05-03T02:34:01.036Z,8.7
2023-05-03T02:35:01.396Z,8.7
2023-05-03T02:36:01.049Z,8.7
2023-05-03T02:37:01.068Z,8.7
2023-05-03T02:38:01.740Z,8.6
2023-05-03T02:39:01.063Z,8.6
2023-05-03T02:40:04.109Z,8.6
2023-05-03T02:41:01.079Z,8.6
2023-05-03T02:42:01.086Z,8.6
2023-05-03T02:43:01.086Z,8.6
2023-05-03T02:44:01.099Z,8.6
2023-05-03T02:45:01.132Z,8.5
2023-05-03T02:46:01.509Z,8.5
2023-05-03T02:47:01.224Z,8.5
2023-05-03T02:48:01.030Z,8.5
2023-05-03T02:49:01.033Z,8.5
2023-05-03T02:50:01.340Z,8.5
2023-05-03T02:51:01.065Z,8.5
2023-05-03T02:52:01.049Z,8.5
2023-05-03T02:53:01.376Z,8.5
2023-05-03T02:54:02.066Z,8.5
2023-05-03T02:55:02.043Z,8.5
2023-05-03T02:56:01.089Z,8.5
2023-05-03T02:57:04.190Z,8.5
2023-05-03T02:58:01.479Z,8.5
2023-05-03T02:59:01.100Z,8.5
2023-05-03T03:00:01.513Z,8.4
2023-05-03T03:01:01.106Z,8.5
2023-05-03T03:02:01.342Z,8.4
2023-05-03T03:03:01.224Z,8.4
2023-05-03T03:04:01.647Z,8.4
2023-05-03T03:05:01.929Z,8.4
2023-05-03T03:06:01.198Z,8.4
2023-05-03T03:07:01.038Z,8.4
2023-05-03T03:08:01.036Z,8.4
2023-05-03T03:09:01.052Z,8.4
2023-05-03T03:10:01.354Z,8.4
2023-05-03T03:11:01.074Z,8.5
2023-05-03T03:12:01.087Z,8.5
2023-05-03T03:13:01.017Z,8.5
2023-05-03T03:14:01.086Z,8.5
2023-05-03T03:15:01.526Z,8.5
2023-05-03T03:16:01.502Z,8.5
2023-05-03T03:17:01.111Z,8.5
2023-05-03T03:18:01.222Z,8.5
2023-05-03T03:19:01.075Z,8.5
2023-05-03T03:20:01.516Z,8.5
2023-05-03T03:21:01.029Z,8.5
2023-05-03T03:22:01.108Z,8.5
2023-05-03T03:23:01.146Z,8.5
2023-05-03T03:24:01.140Z,8.5
2023-05-03T03:25:01.051Z,8.5
2023-05-03T03:26:01.811Z,8.5
2023-05-03T03:27:01.060Z,8.5
2023-05-03T03:28:01.071Z,8.5
2023-05-03T03:29:01.105Z,8.5
2023-05-03T03:30:01.555Z,8.5
2023-05-03T03:31:01.105Z,8.5
2023-05-03T03:32:01.333Z,8.5
2023-05-03T03:33:01.141Z,8.4
2023-05-03T03:34:01.114Z,8.4
2023-05-03T03:35:01.206Z,8.4
2023-05-03T03:36:01.149Z,8.4
2023-05-03T03:37:01.016Z,8.3
2023-05-03T03:38:01.220Z,8.3
2023-05-03T03:39:01.034Z,8.3
2023-05-03T03:40:02.045Z,8.3
2023-05-03T03:41:01.673Z,8.3
2023-05-03T03:42:01.369Z,8.3
2023-05-03T03:43:03.861Z,8.3
2023-05-03T03:44:01.078Z,8.3
2023-05-03T03:45:01.022Z,8.3
2023-05-03T03:46:01.086Z,8.3
2023-05-03T03:47:01.126Z,8.3
2023-05-03T03:48:05.914Z,8.3
2023-05-03T03:49:01.844Z,8.4
2023-05-03T03:50:02.058Z,8.4
2023-05-03T03:51:01.695Z,8.4
2023-05-03T03:52:01.134Z,8.3
2023-05-03T03:53:08.946Z,8.3
2023-05-03T03:54:01.041Z,8.3
2023-05-03T03:55:01.135Z,8.3
2023-05-03T03:56:01.240Z,8.3
2023-05-03T03:57:00.848Z,8.3
2023-05-03T03:58:11.780Z,8.3
2023-05-03T03:59:02.088Z,8.3
2023-05-03T04:00:04.450Z,8.2
2023-05-03T04:01:00.800Z,8.2
2023-05-03T04:02:00.525Z,8.2
2023-05-03T04:03:13.230Z,8.2
2023-05-03T04:04:01.904Z,8.1
2023-05-03T04:05:01.920Z,8.1
2023-05-03T04:06:01.163Z,8.1
2023-05-03T04:07:01.085Z,8.2
2023-05-03T04:08:16.350Z,8.2
2023-05-03T04:09:01.414Z,8.2
2023-05-03T04:10:01.452Z,8.2
2023-05-03T04:11:01.048Z,8.2
2023-05-03T04:12:01.490Z,8.2
2023-05-03T04:13:01.019Z,8.3
2023-05-03T04:14:01.172Z,8.3
2023-05-03T04:15:01.042Z,8.3
2023-05-03T04:16:01.794Z,8.3
2023-05-03T04:17:01.158Z,8.3
2023-05-03T04:18:01.118Z,8.3
2023-05-03T04:19:01.511Z,8.3
2023-05-03T04:20:01.494Z,8.3
2023-05-03T04:21:01.369Z,8.4
2023-05-03T04:22:01.130Z,8.4
2023-05-03T04:23:00.803Z,8.4
2023-05-03T04:24:00.372Z,8.5
2023-05-03T04:25:00.599Z,8.5
2023-05-03T04:26:01.788Z,8.5
2023-05-03T04:27:01.065Z,8.5
2023-05-03T04:28:01.061Z,8.6
2023-05-03T04:29:01.230Z,8.6
2023-05-03T04:30:01.533Z,8.6
2023-05-03T04:31:04.273Z,8.6
2023-05-03T04:32:01.197Z,8.6
2023-05-03T04:33:01.182Z,8.6
2023-05-03T04:34:00.814Z,8.6
2023-05-03T04:35:00.359Z,8.6
2023-05-03T04:35:59.874Z,8.6
2023-05-03T04:36:59.565Z,8.6
2023-05-03T04:38:01.116Z,8.6
2023-05-03T04:39:01.786Z,8.6
2023-05-03T04:40:01.890Z,8.7
2023-05-03T04:41:02.293Z,8.7
2023-05-03T04:42:01.352Z,8.7
2023-05-03T04:43:01.371Z,8.8
2023-05-03T04:44:02.088Z,8.8
2023-05-03T04:45:01.064Z,8.8
2023-05-03T04:46:01.101Z,8.8
2023-05-03T04:47:01.063Z,8.8
2023-05-03T04:48:01.153Z,8.8
2023-05-03T04:49:01.153Z,8.8
2023-05-03T04:50:01.408Z,8.8
2023-05-03T04:51:01.016Z,8.8
2023-05-03T04:52:01.176Z,8.9
2023-05-03T04:53:01.214Z,8.9
2023-05-03T04:54:01.248Z,8.9
2023-05-03T04:55:01.549Z,8.9
2023-05-03T04:56:01.257Z,9
2023-05-03T04:57:01.035Z,9
2023-05-03T04:58:01.399Z,9
2023-05-03T04:59:01.041Z,9
2023-05-03T05:00:01.236Z,9
2023-05-03T05:01:01.255Z,9
2023-05-03T05:02:01.190Z,9
2023-05-03T05:03:00.920Z,9
2023-05-03T05:04:01.179Z,9
2023-05-03T05:05:00.634Z,9
2023-05-03T05:06:00.244Z,9
2023-05-03T05:06:59.842Z,9
2023-05-03T05:08:01.615Z,9
2023-05-03T05:09:01.497Z,9
2023-05-03T05:10:02.567Z,9
2023-05-03T05:11:01.290Z,9
2023-05-03T05:12:01.122Z,9
2023-05-03T05:13:01.052Z,9
2023-05-03T05:14:01.195Z,9
2023-05-03T05:15:01.867Z,9
2023-05-03T05:16:01.040Z,9
2023-05-03T05:17:01.046Z,9
2023-05-03T05:18:02.104Z,9.1
2023-05-03T05:19:03.793Z,9
2023-05-03T05:20:02.064Z,9.1
2023-05-03T05:21:01.753Z,9.1
2023-05-03T05:22:01.095Z,9.2
2023-05-03T05:23:00.798Z,9.3
2023-05-03T05:24:05.863Z,9.3
2023-05-03T05:25:01.381Z,9.3
2023-05-03T05:26:02.127Z,9.4
2023-05-03T05:27:01.519Z,9.4
2023-05-03T05:28:01.822Z,9.4
2023-05-03T05:29:08.008Z,9.4
2023-05-03T05:30:01.041Z,9.4
2023-05-03T05:31:01.800Z,9.3
2023-05-03T05:32:02.004Z,9.3
2023-05-03T05:33:01.877Z,9.3
2023-05-03T05:34:09.980Z,9.3
2023-05-03T05:35:01.024Z,9.3
2023-05-03T05:36:01.470Z,9.4
2023-05-03T05:37:01.023Z,9.4
2023-05-03T05:38:01.078Z,9.4
2023-05-03T05:39:13.734Z,9.5
2023-05-03T05:40:01.648Z,9.5
2023-05-03T05:41:05.359Z,9.6
2023-05-03T05:42:01.119Z,9.6
2023-05-03T05:43:00.817Z,9.6
2023-05-03T05:44:17.654Z,9.7
2023-05-03T05:45:01.424Z,9.8
2023-05-03T05:46:02.440Z,9.9
2023-05-03T05:47:02.188Z,9.8
2023-05-03T05:48:01.980Z,9.8
2023-05-03T05:49:01.147Z,9.8
2023-05-03T05:50:01.221Z,10
2023-05-03T05:51:01.163Z,10.1
2023-05-03T05:52:01.080Z,10.3
2023-05-03T05:53:01.113Z,10.4
2023-05-03T05:54:01.115Z,10.5
2023-05-03T05:55:01.182Z,10.5
2023-05-03T05:56:01.232Z,10.6
2023-05-03T05:57:01.150Z,10.6
2023-05-03T05:58:01.138Z,10.6
2023-05-03T05:59:01.136Z,10.6
2023-05-03T06:00:01.700Z,10.6
2023-05-03T06:01:02.149Z,10.6
2023-05-03T06:02:01.457Z,10.8
2023-05-03T06:03:01.187Z,10.8
2023-05-03T06:04:02.038Z,10.8
2023-05-03T06:05:01.002Z,11
2023-05-03T06:06:00.647Z,11.1
2023-05-03T06:07:00.381Z,11.5
2023-05-03T06:08:00.048Z,12
2023-05-03T06:09:01.275Z,12.3
2023-05-03T06:10:02.022Z,12.7
2023-05-03T06:11:01.206Z,13.1
2023-05-03T06:12:02.200Z,13.5
2023-05-03T06:13:02.021Z,13.8
2023-05-03T06:14:01.123Z,14.1
2023-05-03T06:15:02.446Z,14.3
2023-05-03T06:16:01.255Z,14.5
2023-05-03T06:17:01.035Z,14.4
2023-05-03T06:18:01.054Z,14.2
2023-05-03T06:19:01.080Z,14
2023-05-03T06:20:01.347Z,13.9
2023-05-03T06:21:00.840Z,13.7
2023-05-03T06:22:00.544Z,13.4
2023-05-03T06:23:00.250Z,13
2023-05-03T06:23:59.950Z,12.8
2023-05-03T06:24:59.632Z,12.6
2023-05-03T06:26:01.274Z,12.3
2023-05-03T06:27:02.523Z,12
2023-05-03T06:28:01.540Z,11.7
2023-05-03T06:29:01.308Z,11.5
2023-05-03T06:30:01.530Z,11.3
2023-05-03T06:31:01.606Z,11.1
2023-05-03T06:32:01.242Z,11
2023-05-03T06:33:01.185Z,10.8
2023-05-03T06:34:01.044Z,10.8
2023-05-03T06:35:01.228Z,10.8
2023-05-03T06:36:01.075Z,10.8
2023-05-03T06:37:01.755Z,10.8
2023-05-03T06:38:01.473Z,10.8
2023-05-03T06:39:01.088Z,10.8
2023-05-03T06:40:02.381Z,10.8
2023-05-03T06:41:01.093Z,10.8
2023-05-03T06:42:01.120Z,10.8
2023-05-03T06:43:01.234Z,10.8
2023-05-03T06:44:01.324Z,10.8
2023-05-03T06:45:01.100Z,10.8
2023-05-03T06:46:01.151Z,10.8
2023-05-03T06:47:01.264Z,10.8
2023-05-03T06:48:01.185Z,10.8
2023-05-03T06:49:01.315Z,10.7
2023-05-03T06:50:00.985Z,10.7
2023-05-03T06:51:01.041Z,10.7
2023-05-03T06:52:01.035Z,10.7
2023-05-03T06:53:01.048Z,10.8
2023-05-03T06:54:01.075Z,10.8
2023-05-03T06:55:01.466Z,10.8
2023-05-03T06:56:01.182Z,10.8
2023-05-03T06:57:01.209Z,10.8
2023-05-03T06:58:02.328Z,10.8
2023-05-03T06:59:01.361Z,10.8
2023-05-03T07:00:01.295Z,10.8
2023-05-03T07:01:02.532Z,10.8
2023-05-03T07:02:02.745Z,10.8
2023-05-03T07:03:01.480Z,10.8
2023-05-03T07:04:01.505Z,10.8
2023-05-03T07:05:01.881Z,10.8
2023-05-03T07:06:01.148Z,10.8
2023-05-03T07:07:01.106Z,10.8
2023-05-03T07:08:01.056Z,10.8
2023-05-03T07:09:01.065Z,10.8
2023-05-03T07:10:01.313Z,10.9
2023-05-03T07:11:01.779Z,11
2023-05-03T07:12:01.754Z,11
2023-05-03T07:13:01.397Z,11
2023-05-03T07:14:04.142Z,11
2023-05-03T07:15:01.620Z,10.9
2023-05-03T07:16:03.375Z,10.9
2023-05-03T07:17:02.858Z,11
2023-05-03T07:18:01.257Z,11
2023-05-03T07:19:02.028Z,11
2023-05-03T07:20:04.657Z,11
2023-05-03T07:21:01.171Z,11
2023-05-03T07:22:01.037Z,11
2023-05-03T07:23:01.246Z,11
2023-05-03T07:24:01.162Z,11
2023-05-03T07:25:06.687Z,11.1
2023-05-03T07:26:01.051Z,11.1
2023-05-03T07:27:01.361Z,11.1
2023-05-03T07:28:01.082Z,11.1
2023-05-03T07:29:01.115Z,11.1
2023-05-03T07:30:09.814Z,11.2
2023-05-03T07:31:01.325Z,11.2
2023-05-03T07:32:01.520Z,11.2
2023-05-03T07:33:01.288Z,11.2
2023-05-03T07:34:01.152Z,11.2
2023-05-03T07:35:12.807Z,11.3
2023-05-03T07:36:01.122Z,11.2
2023-05-03T07:37:01.116Z,11.3
2023-05-03T07:38:01.113Z,11.3
2023-05-03T07:39:01.307Z,11.3
2023-05-03T07:40:15.548Z,11.3
2023-05-03T07:41:04.048Z,11.3
2023-05-03T07:42:01.718Z,11.3
2023-05-03T07:43:02.006Z,11.3
2023-05-03T07:44:02.229Z,11.3
2023-05-03T07:45:01.468Z,11.3
2023-05-03T07:46:01.103Z,11.3
2023-05-03T07:47:01.084Z,11.3
2023-05-03T07:48:01.196Z,11.3
2023-05-03T07:49:01.093Z,11.3
2023-05-03T07:50:01.368Z,11.3
2023-05-03T07:51:01.126Z,11.4
2023-05-03T07:52:01.133Z,11.5
2023-05-03T07:53:01.131Z,11.5
2023-05-03T07:54:01.030Z,11.6
2023-05-03T07:55:01.033Z,11.6
2023-05-03T07:56:01.289Z,11.5
2023-05-03T07:57:01.106Z,11.5
2023-05-03T07:58:01.101Z,11.5
2023-05-03T07:59:09.124Z,11.4
2023-05-03T08:00:01.233Z,11.3
2023-05-03T08:01:01.759Z,11.3
2023-05-03T08:02:01.974Z,11.4
2023-05-03T08:03:01.869Z,11.4
2023-05-03T08:04:01.183Z,11.5
2023-05-03T08:05:01.768Z,11.5
2023-05-03T08:06:00.883Z,11.5
2023-05-03T08:07:01.131Z,11.6
2023-05-03T08:08:01.113Z,11.6
2023-05-03T08:09:01.120Z,11.7
2023-05-03T08:10:01.172Z,11.8
2023-05-03T08:11:01.431Z,11.8
2023-05-03T08:12:01.054Z,12
2023-05-03T08:13:01.694Z,12
2023-05-03T08:14:01.294Z,12.1
2023-05-03T08:15:02.864Z,12.1
2023-05-03T08:16:02.512Z,12.2
2023-05-03T08:17:01.113Z,12.3
2023-05-03T08:18:01.107Z,12.3
2023-05-03T08:19:01.087Z,12.3
2023-05-03T08:20:01.704Z,12.1
2023-05-03T08:21:01.098Z,12
2023-05-03T08:22:01.117Z,12
2023-05-03T08:23:01.313Z,12
2023-05-03T08:24:00.835Z,12
2023-05-03T08:25:01.118Z,12
2023-05-03T08:26:00.720Z,12
2023-05-03T08:27:00.436Z,12
2023-05-03T08:28:00.135Z,12
2023-05-03T08:28:59.835Z,12
2023-05-03T08:30:02.563Z,12
2023-05-03T08:31:01.511Z,12
2023-05-03T08:32:02.090Z,12.1
2023-05-03T08:33:00.723Z,12.1
2023-05-03T08:34:00.684Z,12
2023-05-03T08:35:00.268Z,12
2023-05-03T08:35:59.988Z,12
2023-05-03T08:36:59.713Z,12
2023-05-03T08:38:01.290Z,12
2023-05-03T08:39:02.548Z,12.1
2023-05-03T08:40:01.324Z,12.1
2023-05-03T08:41:01.138Z,12.1
2023-05-03T08:42:03.892Z,12.1
2023-05-03T08:43:01.445Z,12.2
2023-05-03T08:44:00.565Z,12.3
2023-05-03T08:45:00.294Z,12.3
2023-05-03T08:45:59.947Z,12.3
2023-05-03T08:46:59.595Z,12.3
2023-05-03T08:48:01.748Z,12.5
2023-05-03T08:49:01.748Z,12.5
2023-05-03T08:50:01.276Z,12.5
2023-05-03T08:51:01.087Z,12.6
2023-05-03T08:52:01.471Z,12.7
2023-05-03T08:53:01.102Z,12.8
2023-05-03T08:54:01.144Z,12.8
2023-05-03T08:55:01.113Z,12.8
2023-05-03T08:56:01.135Z,12.8
2023-05-03T08:57:01.477Z,12.8
2023-05-03T08:58:02.385Z,12.8
2023-05-03T08:59:01.098Z,12.8
2023-05-03T09:00:01.231Z,12.8
2023-05-03T09:01:01.161Z,12.8
2023-05-03T09:02:01.168Z,12.8
2023-05-03T09:03:01.559Z,12.8
2023-05-03T09:04:00.933Z,12.8
2023-05-03T09:05:01.186Z,12.8
2023-05-03T09:06:03.695Z,12.8
2023-05-03T09:07:01.770Z,12.9
2023-05-03T09:08:01.398Z,12.8
2023-05-03T09:09:01.089Z,12.8
2023-05-03T09:10:01.112Z,12.8
2023-05-03T09:11:05.734Z,12.8
2023-05-03T09:12:02.602Z,12.7
2023-05-03T09:13:01.521Z,12.7
2023-05-03T09:14:01.077Z,12.6
2023-05-03T09:15:01.183Z,12.6
2023-05-03T09:16:09.291Z,12.6
2023-05-03T09:17:01.109Z,12.6
2023-05-03T09:18:02.001Z,12.6
2023-05-03T09:19:01.969Z,12.6
2023-05-03T09:20:01.445Z,12.6
2023-05-03T09:21:11.514Z,12.6
2023-05-03T09:22:02.155Z,12.6
2023-05-03T09:23:01.095Z,12.6
2023-05-03T09:24:01.118Z,12.6
2023-05-03T09:25:01.929Z,12.5
2023-05-03T09:26:14.244Z,12.6
2023-05-03T09:27:01.545Z,12.5
2023-05-03T09:28:01.170Z,12.5
2023-05-03T09:29:01.184Z,12.5
2023-05-03T09:30:01.793Z,12.5
2023-05-03T09:31:01.158Z,12.5
2023-05-03T09:32:01.172Z,12.5
2023-05-03T09:33:01.101Z,12.5
2023-05-03T09:34:01.873Z,12.5
2023-05-03T09:35:01.315Z,12.5
2023-05-03T09:36:01.143Z,12.6
2023-05-03T09:37:01.105Z,12.6
2023-05-03T09:38:01.474Z,12.6
2023-05-03T09:39:01.456Z,12.6
2023-05-03T09:40:01.373Z,12.6
2023-05-03T09:41:02.394Z,12.6
2023-05-03T09:42:01.035Z,12.6
2023-05-03T09:43:02.633Z,12.6
2023-05-03T09:44:01.124Z,12.6
2023-05-03T09:45:00.883Z,12.6
2023-05-03T09:46:01.191Z,12.6
2023-05-03T09:47:01.444Z,12.7
2023-05-03T09:48:01.103Z,12.7
2023-05-03T09:49:01.045Z,12.8
2023-05-03T09:50:01.109Z,12.8
2023-05-03T09:51:01.057Z,12.8
2023-05-03T09:52:01.062Z,12.8
2023-05-03T09:53:01.713Z,12.7
2023-05-03T09:54:01.904Z,12.6
2023-05-03T09:55:01.435Z,12.6
2023-05-03T09:56:01.204Z,12.6
2023-05-03T09:57:01.697Z,12.5
2023-05-03T09:58:01.433Z,12.5
2023-05-03T09:59:02.938Z,12.6
2023-05-03T10:00:01.192Z,12.6
2023-05-03T10:01:01.665Z,12.5
2023-05-03T10:02:01.444Z,12.6
2023-05-03T10:03:01.401Z,12.6
2023-05-03T10:04:01.372Z,12.6
2023-05-03T10:05:01.675Z,12.6
2023-05-03T10:06:01.584Z,12.6
2023-05-03T10:07:01.241Z,12.6
2023-05-03T10:08:01.390Z,12.7
2023-05-03T10:09:02.402Z,12.7
2023-05-03T10:10:01.086Z,12.7
2023-05-03T10:11:01.011Z,12.7
2023-05-03T10:12:01.317Z,12.8
2023-05-03T10:13:01.496Z,12.9
2023-05-03T10:14:01.487Z,13
2023-05-03T10:15:01.307Z,13.1
2023-05-03T10:16:01.288Z,13.1
2023-05-03T10:17:01.176Z,13.1
2023-05-03T10:18:04.671Z,13.1
2023-05-03T10:19:02.068Z,13.1
2023-05-03T10:20:01.732Z,13.2
2023-05-03T10:21:01.054Z,13.2
2023-05-03T10:22:01.065Z,13.3
2023-05-03T10:23:01.084Z,13.4
2023-05-03T10:24:01.592Z,13.5
2023-05-03T10:25:02.037Z,13.6
2023-05-03T10:26:02.355Z,13.6
2023-05-03T10:27:02.035Z,13.7
2023-05-03T10:28:01.639Z,13.8
2023-05-03T10:29:01.505Z,13.8
2023-05-03T10:30:01.815Z,13.8
2023-05-03T10:31:02.415Z,13.8
2023-05-03T10:32:01.921Z,13.7
2023-05-03T10:33:02.600Z,13.6
2023-05-03T10:34:00.921Z,13.6
2023-05-03T10:35:00.615Z,13.6
2023-05-03T10:36:01.056Z,13.6
2023-05-03T10:37:01.082Z,13.6
2023-05-03T10:38:01.049Z,13.6
2023-05-03T10:39:01.052Z,13.6
2023-05-03T10:40:01.052Z,13.5
2023-05-03T10:41:01.392Z,13.5
2023-05-03T10:42:02.090Z,13.4
2023-05-03T10:43:02.896Z,13.4
2023-05-03T10:44:01.080Z,13.4
2023-05-03T10:45:01.676Z,13.4
2023-05-03T10:46:01.133Z,13.3
2023-05-03T10:47:01.109Z,13.3
2023-05-03T10:48:01.203Z,13.3
2023-05-03T10:49:01.219Z,13.3
2023-05-03T10:50:01.418Z,13.2
2023-05-03T10:51:01.160Z,13.2
2023-05-03T10:52:02.783Z,13.1
2023-05-03T10:53:01.045Z,13.1
2023-05-03T10:54:01.054Z,13.1
2023-05-03T10:55:01.319Z,13.1
2023-05-03T10:56:01.072Z,13.2
2023-05-03T10:57:05.504Z,13.2
2023-05-03T10:58:01.720Z,13.2
2023-05-03T10:59:02.104Z,13.1
2023-05-03T11:00:02.232Z,13.1
2023-05-03T11:01:02.228Z,13.1
2023-05-03T11:02:08.641Z,13.1
2023-05-03T11:03:01.707Z,13.2
2023-05-03T11:04:01.766Z,13.3
2023-05-03T11:05:01.881Z,13.3
2023-05-03T11:06:01.910Z,13.3
2023-05-03T11:07:10.791Z,13.4
2023-05-03T11:08:00.707Z,13.5
2023-05-03T11:09:00.267Z,13.5
2023-05-03T11:09:59.916Z,13.5
2023-05-03T11:10:59.508Z,13.6
2023-05-03T11:12:13.750Z,13.6
2023-05-03T11:13:01.083Z,13.6
2023-05-03T11:14:01.717Z,13.7
2023-05-03T11:15:02.722Z,13.7
2023-05-03T11:16:01.927Z,13.8
2023-05-03T11:17:16.521Z,13.8
2023-05-03T11:18:01.302Z,13.8
2023-05-03T11:19:02.329Z,13.8
2023-05-03T11:20:01.196Z,13.8
2023-05-03T11:21:01.932Z,13.9
2023-05-03T11:22:01.243Z,13.9
2023-05-03T11:23:01.760Z,14
2023-05-03T11:24:02.011Z,14
2023-05-03T11:25:01.640Z,14
2023-05-03T11:26:01.160Z,14
2023-05-03T11:27:01.088Z,14.1
2023-05-03T11:28:01.021Z,14.1
2023-05-03T11:29:01.399Z,14.1
2023-05-03T11:30:01.049Z,14.1
2023-05-03T11:31:04.062Z,14.1
2023-05-03T11:32:01.126Z,14.2
2023-05-03T11:33:01.588Z,14.2
2023-05-03T11:34:01.283Z,14.3
2023-05-03T11:35:02.406Z,14.3
2023-05-03T11:36:01.933Z,14.3
2023-05-03T11:37:01.938Z,14.3
2023-05-03T11:38:01.158Z,14.2
2023-05-03T11:39:01.153Z,14.1
2023-05-03T11:40:01.181Z,14.1
2023-05-03T11:41:01.097Z,14
2023-05-03T11:42:01.346Z,13.9
2023-05-03T11:43:01.107Z,13.8
2023-05-03T11:44:15.231Z,13.7
2023-05-03T11:45:01.280Z,13.6
2023-05-03T11:46:01.367Z,13.6
2023-05-03T11:47:01.626Z,13.5
2023-05-03T11:48:01.976Z,13.6
2023-05-03T11:49:01.315Z,13.6
2023-05-03T11:50:01.172Z,13.7
2023-05-03T11:51:01.179Z,13.8
2023-05-03T11:52:01.319Z,13.8
2023-05-03T11:53:01.267Z,13.8
2023-05-03T11:54:06.886Z,13.7
2023-05-03T11:55:01.681Z,13.7
2023-05-03T11:56:01.438Z,13.7
2023-05-03T11:57:01.348Z,13.8
2023-05-03T11:58:01.350Z,13.8
2023-05-03T11:59:01.291Z,13.9
2023-05-03T12:00:02.620Z,14
2023-05-03T12:01:02.384Z,14
2023-05-03T12:02:02.262Z,14
2023-05-03T12:03:01.660Z,14
2023-05-03T12:04:02.734Z,14
2023-05-03T12:05:01.966Z,14.1
2023-05-03T12:06:02.495Z,14.1
2023-05-03T12:07:03.189Z,14.1
2023-05-03T12:08:02.056Z,14.2
2023-05-03T12:09:04.318Z,14.3
2023-05-03T12:11:02.612Z,14.4
2023-05-03T12:12:02.871Z,14.5
2023-05-03T12:13:04.862Z,14.5
2023-05-03T12:14:01.570Z,14.5
2023-05-03T12:15:04.989Z,14.5
2023-05-03T12:16:11.779Z,14.5
2023-05-03T12:17:01.578Z,14.5
2023-05-03T12:18:04.222Z,14.5
2023-05-03T12:19:02.125Z,14.5
2023-05-03T12:22:18.228Z,14.5
2023-05-03T12:23:04.090Z,14.4
2023-05-03T12:24:02.300Z,14.4
2023-05-03T12:25:03.990Z,14.3
2023-05-03T12:26:03.910Z,14.3
2023-05-03T12:27:02.871Z,14.3
2023-05-03T12:28:18.766Z,14.2
2023-05-03T12:29:02.242Z,14.1
2023-05-03T12:30:01.943Z,14.1
2023-05-03T12:31:01.228Z,14.1
2023-05-03T12:32:01.134Z,14
2023-05-03T12:33:04.433Z,14
2023-05-03T12:34:27.467Z,14
2023-05-03T12:35:02.678Z,14
2023-05-03T12:36:04.298Z,14
2023-05-03T12:37:03.956Z,14
2023-05-03T12:38:02.836Z,14
2023-05-03T12:39:02.222Z,14.1
2023-05-03T12:40:29.211Z,14.1
2023-05-03T12:41:02.426Z,14.2
2023-05-03T12:43:02.631Z,14.3
2023-05-03T12:44:02.037Z,14.4
2023-05-03T12:45:04.622Z,14.5
2023-05-03T12:46:25.754Z,14.6
2023-05-03T12:47:01.823Z,14.7
2023-05-03T12:48:05.222Z,14.8
2023-05-03T12:49:01.329Z,14.8
2023-05-03T12:50:05.637Z,14.8
2023-05-03T12:51:18.640Z,14.9
2023-05-03T12:52:32.629Z,14.9
2023-05-03T12:53:09.977Z,15
2023-05-03T12:54:02.147Z,15
2023-05-03T12:55:03.663Z,15
2023-05-03T12:56:04.007Z,15.1
2023-05-03T12:57:01.539Z,15.1
2023-05-03T12:59:34.634Z,15.1
2023-05-03T13:00:03.711Z,15.1
2023-05-03T13:01:37.907Z,15.1
2023-05-03T13:04:34.923Z,15.2
2023-05-03T13:05:02.213Z,15.2
2023-05-03T13:06:06.772Z,15.2
2023-05-03T13:07:01.556Z,15.2
2023-05-03T13:08:21.125Z,15.1
2023-05-03T13:09:03.199Z,15.1
2023-05-03T13:11:01.314Z,15.1
2023-05-03T13:12:01.287Z,15.1
2023-05-03T13:13:01.055Z,15.1
2023-05-03T13:14:00.735Z,15
2023-05-03T13:15:00.407Z,15
2023-05-03T13:16:00.269Z,15
2023-05-03T13:16:59.906Z,15.1
2023-05-03T13:17:59.540Z,15.1
2023-05-03T13:19:02.158Z,15.1
2023-05-03T13:20:02.146Z,15.2
2023-05-03T13:21:01.080Z,15.3
2023-05-03T13:22:01.119Z,15.3
2023-05-03T13:23:01.097Z,15.3
2023-05-03T13:24:01.732Z,15.2
2023-05-03T13:25:01.535Z,15.2
2023-05-03T13:26:01.192Z,15.1
2023-05-03T13:27:01.176Z,15.1
2023-05-03T13:28:00.840Z,15
2023-05-03T13:29:00.422Z,14.9
2023-05-03T13:30:00.026Z,14.8
2023-05-03T13:30:59.764Z,14.8
2023-05-03T13:32:01.561Z,14.8
2023-05-03T13:33:00.775Z,14.8
2023-05-03T13:34:00.451Z,14.8
2023-05-03T13:35:00.081Z,14.9
2023-05-03T13:36:00.090Z,15
2023-05-03T13:36:59.847Z,15
2023-05-03T13:38:01.399Z,15
2023-05-03T13:39:02.248Z,15.1
2023-05-03T13:40:02.798Z,15.1
2023-05-03T13:41:02.448Z,15.2
2023-05-03T13:42:01.410Z,15.3
2023-05-03T13:43:01.441Z,15.3
2023-05-03T13:44:01.098Z,15.3